Whiteoak, Missouri
Current Conditions -  °F | °C
As of 10:53 PM on Saturday 25 Oct 2014 (Local Time) from KHKA Reporting Station
Clear Clear  
Wind Chill: 67°   Ceiling: Unl
Heat Index: 67°   Visibility: 10mi
Dew Point: 63°   Wind: 5mph
Humidity: 87%   Direction: 190°S
Pressure: 30.02"   Gusts: NA
Location:  36.13°N, 90.16°W
Report Text: KHKA 260353Z AUTO 19004KT 10SM CLR 19/17 A3002 RMK AO2 SLP162 T01940172
Loading
Personal Weather Stations






























Interactive Weather Map
Tropical Storm Tracking
New forecast layout! Learn more

10-Day Weather Forecast

Advertisements
Track Severe Weather on mobile